createdAt,value
2023-04-29T00:00:06.654Z,6.93
2023-04-29T00:02:33.728Z,7.18
2023-04-29T00:05:00.768Z,6.82
2023-04-29T00:07:27.521Z,7.20
2023-04-29T00:09:54.298Z,7.07
2023-04-29T00:12:21.114Z,7.15
2023-04-29T00:14:47.721Z,7.05
2023-04-29T00:17:14.562Z,7.30
2023-04-29T00:19:41.736Z,7.18
2023-04-29T00:22:08.233Z,8.25
2023-04-29T00:24:34.918Z,7.05
2023-04-29T00:27:02.524Z,7.38
2023-04-29T00:29:29.005Z,7.03
2023-04-29T00:31:55.719Z,7.13
2023-04-29T00:34:22.594Z,7.47
2023-04-29T00:36:49.199Z,7.45
2023-04-29T00:39:15.700Z,7.47
2023-04-29T00:41:42.628Z,8.10
2023-04-29T00:44:10.224Z,7.70
2023-04-29T00:46:37.257Z,7.60
2023-04-29T00:49:04.097Z,7.90
2023-04-29T00:51:30.870Z,7.85
2023-04-29T00:53:57.544Z,7.47
2023-04-29T00:56:24.577Z,7.43
2023-04-29T00:58:52.649Z,7.28
2023-04-29T01:01:20.211Z,7.50
2023-04-29T01:03:47.237Z,7.78
2023-04-29T01:07:14.882Z,7.68
2023-04-29T01:09:47.049Z,8.98
2023-04-29T01:12:35.398Z,8.65
2023-04-29T01:15:12.561Z,10.50
2023-04-29T01:17:48.684Z,10.75
2023-04-29T01:20:16.651Z,10.35
2023-04-29T01:22:43.121Z,10.65
2023-04-29T01:25:10.041Z,10.80
2023-04-29T01:27:46.065Z,10.65
2023-04-29T01:30:57.474Z,11.43
2023-04-29T01:33:41.381Z,11.88
2023-04-29T01:36:42.934Z,12.15
2023-04-29T01:39:26.794Z,12.05
2023-04-29T01:42:18.045Z,12.52
2023-04-29T01:44:47.568Z,12.57
2023-04-29T01:47:14.998Z,14.77
2023-04-29T01:49:41.494Z,13.60
2023-04-29T01:52:07.925Z,14.65
2023-04-29T01:54:37.328Z,14.35
2023-04-29T01:57:04.370Z,15.23
2023-04-29T01:59:31.709Z,14.73
2023-04-29T02:01:58.956Z,14.68
2023-04-29T02:04:25.876Z,15.88
2023-04-29T02:06:52.910Z,16.05
2023-04-29T02:09:19.455Z,15.70
2023-04-29T02:11:45.950Z,16.27
2023-04-29T02:14:12.601Z,16.63
2023-04-29T02:16:39.095Z,16.90
2023-04-29T02:19:05.789Z,17.05
2023-04-29T02:21:32.603Z,17.83
2023-04-29T02:23:59.028Z,18.25
2023-04-29T02:26:25.529Z,18.02
2023-04-29T02:28:52.585Z,19.63
2023-04-29T02:31:19.311Z,19.52
2023-04-29T02:33:45.961Z,19.02
2023-04-29T02:36:12.452Z,19.50
2023-04-29T02:38:39.034Z,18.98
2023-04-29T02:41:05.594Z,20.98
2023-04-29T02:43:32.129Z,20.63
2023-04-29T02:45:58.630Z,21.05
2023-04-29T02:48:25.118Z,21.30
2023-04-29T02:50:51.566Z,20.98
2023-04-29T02:53:18.003Z,21.98
2023-04-29T02:55:44.489Z,22.00
2023-04-29T02:58:11.045Z,22.58
2023-04-29T03:00:37.491Z,22.27
2023-04-29T03:03:03.993Z,22.42
2023-04-29T03:05:30.507Z,23.58
2023-04-29T03:07:57.071Z,24.08
2023-04-29T03:10:23.553Z,23.77
2023-04-29T03:12:50.055Z,23.98
2023-04-29T03:15:17.075Z,22.48
2023-04-29T03:17:45.653Z,24.52
2023-04-29T03:20:12.581Z,24.20
2023-04-29T03:22:38.999Z,25.08
2023-04-29T03:25:06.266Z,26.35
2023-04-29T03:27:32.761Z,27.17
2023-04-29T03:29:59.228Z,25.85
2023-04-29T03:32:25.992Z,25.45
2023-04-29T03:34:52.468Z,24.35
2023-04-29T03:37:18.920Z,25.55
2023-04-29T03:39:45.409Z,26.17
2023-04-29T03:42:11.965Z,27.20
2023-04-29T03:44:38.387Z,26.80
2023-04-29T03:47:05.022Z,27.80
2023-04-29T03:49:31.578Z,29.08
2023-04-29T03:51:58.146Z,28.92
2023-04-29T03:54:24.653Z,26.88
2023-04-29T03:56:51.103Z,30.02
2023-04-29T03:59:17.572Z,34.45
2023-04-29T04:01:44.274Z,29.15
2023-04-29T04:04:10.849Z,28.83
2023-04-29T04:06:37.467Z,28.48
2023-04-29T04:09:03.963Z,29.17
2023-04-29T04:11:30.500Z,31.23
2023-04-29T04:13:56.909Z,29.48
2023-04-29T04:16:23.447Z,30.08
2023-04-29T04:18:49.929Z,29.70
2023-04-29T04:21:16.381Z,30.55
2023-04-29T04:23:44.081Z,30.45
2023-04-29T04:26:10.684Z,29.77
2023-04-29T04:28:37.130Z,31.95
2023-04-29T04:31:03.906Z,39.97
2023-04-29T04:33:30.447Z,33.22
2023-04-29T04:35:57.272Z,32.63
2023-04-29T04:38:25.519Z,32.78
2023-04-29T04:40:52.091Z,36.28
2023-04-29T04:43:18.911Z,33.13
2023-04-29T04:45:45.487Z,32.40
2023-04-29T04:48:11.960Z,33.10
2023-04-29T04:50:38.416Z,32.65
2023-04-29T04:53:04.877Z,33.33
2023-04-29T04:55:33.393Z,33.75
2023-04-29T04:58:00.207Z,35.28
2023-04-29T05:00:26.680Z,35.83
2023-04-29T05:02:53.266Z,37.55
2023-04-29T05:05:19.935Z,37.92
2023-04-29T05:07:46.421Z,35.78
2023-04-29T05:10:13.050Z,34.55
2023-04-29T05:12:39.652Z,36.50
2023-04-29T05:15:06.730Z,35.72
2023-04-29T05:17:34.865Z,41.28
2023-04-29T05:20:01.299Z,37.90
2023-04-29T05:22:27.761Z,38.47
2023-04-29T05:24:55.227Z,37.53
2023-04-29T05:27:21.778Z,37.25
2023-04-29T05:29:48.213Z,39.80
2023-04-29T05:32:15.370Z,39.45
2023-04-29T05:34:41.838Z,40.78
2023-04-29T05:37:08.313Z,39.38
2023-04-29T05:39:34.773Z,40.20
2023-04-29T05:42:02.218Z,40.38
2023-04-29T05:44:28.852Z,42.88
2023-04-29T05:46:55.522Z,42.55
2023-04-29T05:49:21.990Z,42.95
2023-04-29T05:51:48.500Z,44.15
2023-04-29T05:54:15.565Z,41.60
2023-04-29T05:56:42.444Z,41.72
2023-04-29T05:59:08.900Z,43.20
2023-04-29T06:01:35.383Z,39.92
2023-04-29T06:04:02.098Z,42.03
2023-04-29T06:06:29.500Z,44.10
2023-04-29T06:08:56.698Z,41.90
2023-04-29T06:11:23.192Z,44.45
2023-04-29T06:13:49.633Z,42.92
2023-04-29T06:16:16.931Z,42.28
2023-04-29T06:18:43.357Z,41.75
2023-04-29T06:21:09.816Z,40.63
2023-04-29T06:23:36.372Z,39.55
2023-04-29T06:26:02.853Z,37.38
2023-04-29T06:28:29.946Z,35.53
2023-04-29T06:30:56.881Z,35.53
2023-04-29T06:33:23.414Z,36.00
2023-04-29T06:35:50.062Z,34.10
2023-04-29T06:38:16.508Z,30.50
2023-04-29T06:40:43.056Z,29.65
2023-04-29T06:43:09.569Z,29.02
2023-04-29T06:45:36.453Z,27.40
2023-04-29T06:48:03.627Z,27.50
2023-04-29T06:50:30.148Z,26.55
2023-04-29T06:52:56.646Z,25.58
2023-04-29T06:55:23.144Z,25.48
2023-04-29T06:57:49.602Z,25.73
2023-04-29T07:00:16.471Z,24.58
2023-04-29T07:02:43.380Z,24.70
2023-04-29T07:05:10.117Z,23.40
2023-04-29T07:07:36.720Z,24.52
2023-04-29T07:10:03.749Z,24.77
2023-04-29T07:12:30.244Z,23.75
2023-04-29T07:14:57.922Z,25.20
2023-04-29T07:17:24.406Z,24.00
2023-04-29T07:19:51.634Z,26.45
2023-04-29T07:22:18.232Z,26.98
2023-04-29T07:24:44.846Z,28.92
2023-04-29T07:27:11.278Z,30.60
2023-04-29T07:29:38.638Z,28.10
2023-04-29T07:32:05.310Z,28.40
2023-04-29T07:34:31.784Z,30.30
2023-04-29T07:36:58.322Z,28.17
2023-04-29T07:39:24.829Z,28.30
2023-04-29T07:41:52.084Z,29.42
2023-04-29T07:44:18.729Z,26.33
2023-04-29T07:46:45.329Z,26.55
2023-04-29T07:49:11.882Z,27.48
2023-04-29T07:51:41.696Z,25.85
2023-04-29T07:54:08.788Z,26.98
2023-04-29T07:56:35.798Z,32.47
2023-04-29T07:59:02.314Z,25.95
2023-04-29T08:01:28.820Z,26.20
2023-04-29T08:03:55.560Z,23.17
2023-04-29T08:06:22.499Z,23.23
2023-04-29T08:08:49.063Z,21.48
2023-04-29T08:11:19.395Z,20.15
2023-04-29T08:13:46.461Z,20.92
2023-04-29T08:16:13.481Z,20.40
2023-04-29T08:18:40.745Z,20.17
2023-04-29T08:21:07.438Z,18.45
2023-04-29T08:23:34.215Z,18.23
2023-04-29T08:26:01.253Z,18.27
2023-04-29T08:28:28.053Z,19.90
2023-04-29T08:30:55.386Z,18.73
2023-04-29T08:33:22.275Z,19.23
2023-04-29T08:35:48.880Z,18.05
2023-04-29T08:38:15.660Z,18.42
2023-04-29T08:40:45.657Z,19.27
2023-04-29T08:43:15.203Z,17.73
2023-04-29T08:45:43.280Z,18.95
2023-04-29T08:48:10.781Z,18.83
2023-04-29T08:50:41.853Z,17.90
2023-04-29T08:53:12.416Z,16.33
2023-04-29T08:55:45.107Z,17.92
2023-04-29T08:58:12.987Z,17.42
2023-04-29T09:00:44.138Z,17.73
2023-04-29T09:03:43.216Z,17.23
2023-04-29T09:06:10.967Z,17.90
2023-04-29T09:08:37.496Z,17.45
2023-04-29T09:11:05.923Z,17.33
2023-04-29T09:13:32.910Z,18.23
2023-04-29T09:15:59.544Z,18.23
2023-04-29T09:19:01.635Z,18.55
2023-04-29T09:23:57.076Z,20.40
2023-04-29T09:26:24.305Z,20.42
2023-04-29T09:29:10.017Z,22.63
2023-04-29T09:31:39.501Z,22.15
2023-04-29T09:34:06.456Z,24.63
2023-04-29T09:36:49.689Z,24.13
2023-04-29T09:39:23.730Z,24.70
2023-04-29T09:41:52.929Z,28.20
2023-04-29T09:44:20.107Z,26.27
2023-04-29T09:46:57.441Z,30.73
2023-04-29T09:49:28.942Z,30.40
2023-04-29T09:51:59.361Z,32.50
2023-04-29T09:54:28.594Z,32.95
2023-04-29T09:56:56.306Z,30.95
2023-04-29T09:59:23.695Z,35.78
2023-04-29T10:01:52.219Z,34.78
2023-04-29T10:04:20.842Z,33.25
2023-04-29T10:06:51.106Z,34.53
2023-04-29T10:09:19.048Z,37.00
2023-04-29T10:11:47.420Z,38.13
2023-04-29T10:14:16.874Z,37.67
2023-04-29T10:17:25.853Z,38.92
2023-04-29T10:20:01.923Z,39.72
2023-04-29T10:22:49.592Z,42.63
2023-04-29T10:25:18.268Z,42.33
2023-04-29T10:27:46.408Z,44.47
2023-04-29T10:30:17.674Z,45.80
2023-04-29T10:32:51.046Z,47.75
2023-04-29T10:35:22.183Z,44.85
2023-04-29T10:37:49.629Z,44.40
2023-04-29T10:40:22.278Z,47.10
2023-04-29T10:42:51.126Z,43.78
2023-04-29T10:45:32.543Z,43.67
2023-04-29T10:48:02.369Z,43.55
2023-04-29T10:50:30.030Z,42.55
2023-04-29T10:52:57.762Z,42.22
2023-04-29T10:55:25.750Z,39.05
2023-04-29T10:57:58.972Z,37.95
2023-04-29T11:00:30.397Z,35.92
2023-04-29T11:02:59.201Z,37.58
2023-04-29T11:05:36.556Z,35.15
2023-04-29T11:08:13.692Z,35.03
2023-04-29T11:10:43.692Z,33.30
2023-04-29T11:13:22.492Z,31.80
2023-04-29T11:15:50.977Z,32.83
2023-04-29T11:18:18.005Z,32.83
2023-04-29T11:21:06.140Z,30.52
2023-04-29T11:23:41.419Z,29.60
2023-04-29T11:26:08.293Z,27.05
2023-04-29T11:28:34.993Z,27.42
2023-04-29T11:31:03.769Z,25.85
2023-04-29T11:33:32.754Z,25.45
2023-04-29T11:36:00.359Z,23.63
2023-04-29T11:38:28.143Z,22.90
2023-04-29T11:40:55.967Z,24.02
2023-04-29T11:43:23.824Z,20.98
2023-04-29T11:45:51.720Z,21.40
2023-04-29T11:48:19.677Z,19.85
2023-04-29T11:50:47.821Z,19.48
2023-04-29T11:53:14.666Z,19.00
2023-04-29T11:55:44.931Z,19.55
2023-04-29T11:58:11.717Z,18.95
2023-04-29T12:00:38.617Z,19.88
2023-04-29T12:03:15.054Z,19.67
2023-04-29T12:05:49.341Z,19.17
2023-04-29T12:08:20.031Z,18.63
2023-04-29T12:10:47.826Z,17.88
2023-04-29T12:13:15.767Z,18.95
2023-04-29T12:15:42.687Z,19.38
2023-04-29T12:18:09.760Z,17.45
2023-04-29T12:20:36.670Z,17.33
2023-04-29T12:23:18.938Z,21.17
2023-04-29T12:25:54.098Z,19.83
2023-04-29T12:28:21.020Z,17.88
2023-04-29T12:30:48.241Z,17.23
2023-04-29T12:33:28.096Z,18.42
2023-04-29T12:35:57.485Z,17.60
2023-04-29T12:38:31.407Z,16.70
2023-04-29T12:41:04.495Z,16.33
2023-04-29T12:43:33.642Z,17.10
2023-04-29T12:46:05.273Z,17.73
2023-04-29T12:51:01.519Z,14.85
2023-04-29T12:53:30.034Z,13.10
2023-04-29T12:55:56.903Z,13.02
2023-04-29T12:58:23.835Z,12.23
2023-04-29T13:00:50.740Z,11.02
2023-04-29T13:03:19.185Z,10.45
2023-04-29T13:05:51.325Z,12.83
2023-04-29T13:08:18.165Z,9.43
2023-04-29T13:10:44.624Z,8.88
2023-04-29T13:13:11.195Z,8.70
2023-04-29T13:15:40.748Z,8.85
2023-04-29T13:18:07.350Z,7.45
2023-04-29T13:20:40.486Z,6.65
2023-04-29T13:23:08.869Z,5.65
2023-04-29T13:25:35.470Z,5.75
2023-04-29T13:28:02.024Z,5.20
2023-04-29T13:30:28.765Z,4.97
2023-04-29T13:33:01.243Z,5.03
2023-04-29T13:35:36.029Z,4.60
2023-04-29T13:38:02.783Z,4.72
2023-04-29T13:40:29.215Z,5.65
2023-04-29T13:43:04.390Z,4.60
2023-04-29T13:45:38.342Z,5.38
2023-04-29T13:48:17.043Z,5.05
2023-04-29T13:53:51.169Z,5.93
2023-04-29T13:59:19.566Z,7.80
2023-04-29T14:03:53.912Z,7.88
2023-04-29T14:06:20.498Z,6.85
2023-04-29T14:08:46.956Z,7.28
2023-04-29T14:11:13.564Z,7.85
2023-04-29T14:13:39.991Z,7.28
2023-04-29T14:16:07.047Z,8.82
2023-04-29T14:18:33.596Z,7.93
2023-04-29T14:21:00.008Z,6.75
2023-04-29T14:23:26.564Z,7.90
2023-04-29T14:25:54.634Z,7.90
2023-04-29T14:28:21.402Z,7.00
2023-04-29T14:30:47.882Z,8.20
2023-04-29T14:33:14.334Z,9.05
2023-04-29T14:35:41.082Z,7.70
2023-04-29T14:38:07.581Z,7.25
2023-04-29T14:40:34.109Z,8.45
2023-04-29T14:43:01.848Z,6.70
2023-04-29T14:45:28.279Z,7.28
2023-04-29T14:47:54.774Z,7.60
2023-04-29T14:50:23.312Z,6.85
2023-04-29T14:52:49.737Z,6.07
2023-04-29T14:55:16.810Z,6.53
2023-04-29T14:57:43.326Z,8.88
2023-04-29T15:00:12.138Z,12.05
2023-04-29T15:02:38.616Z,6.47
2023-04-29T15:05:05.398Z,6.38
2023-04-29T15:07:32.904Z,5.80
2023-04-29T15:09:59.411Z,6.10
2023-04-29T15:12:25.986Z,5.45
2023-04-29T15:14:53.579Z,5.55
2023-04-29T15:17:20.146Z,6.32
2023-04-29T15:19:46.851Z,5.55
2023-04-29T15:22:13.269Z,6.40
2023-04-29T15:24:39.845Z,6.20
2023-04-29T15:27:06.625Z,6.07
2023-04-29T15:29:34.545Z,5.70
2023-04-29T15:32:01.386Z,6.13
2023-04-29T15:34:28.173Z,5.97
2023-04-29T15:36:56.160Z,6.35
2023-04-29T15:39:22.940Z,6.07
2023-04-29T15:41:49.334Z,6.13
2023-04-29T15:44:15.760Z,6.10
2023-04-29T15:46:42.325Z,5.78
2023-04-29T15:49:08.737Z,5.78
2023-04-29T15:51:35.224Z,6.15
2023-04-29T15:54:01.711Z,6.35
2023-04-29T15:56:28.205Z,5.85
2023-04-29T15:58:54.690Z,6.43
2023-04-29T16:01:21.199Z,6.47
2023-04-29T16:03:48.099Z,5.88
2023-04-29T16:06:16.746Z,6.43
2023-04-29T16:08:43.322Z,5.75
2023-04-29T16:11:09.722Z,6.30
2023-04-29T16:13:36.621Z,7.10
2023-04-29T16:16:03.541Z,7.07
2023-04-29T16:18:30.073Z,6.63
2023-04-29T16:20:56.636Z,6.18
2023-04-29T16:23:23.304Z,6.50
2023-04-29T16:25:49.978Z,6.38
2023-04-29T16:28:17.275Z,6.32
2023-04-29T16:30:43.904Z,6.78
2023-04-29T16:33:10.403Z,7.28
2023-04-29T16:35:37.181Z,8.18
2023-04-29T16:38:04.826Z,7.78
2023-04-29T16:40:31.272Z,7.05
2023-04-29T16:42:57.890Z,7.15
2023-04-29T16:45:25.546Z,6.50
2023-04-29T16:47:52.706Z,6.93
2023-04-29T16:50:19.191Z,6.65
2023-04-29T16:52:46.028Z,6.63
2023-04-29T16:55:13.146Z,7.80
2023-04-29T16:57:39.821Z,5.60
2023-04-29T17:00:10.229Z,5.88
2023-04-29T17:02:47.466Z,4.40
2023-04-29T17:05:24.374Z,3.97
2023-04-29T17:07:50.854Z,4.00
2023-04-29T17:10:17.454Z,4.28
2023-04-29T17:12:44.186Z,4.28
2023-04-29T17:15:10.991Z,4.03
2023-04-29T17:17:37.817Z,3.90
2023-04-29T17:20:04.787Z,4.05
2023-04-29T17:22:32.676Z,4.25
2023-04-29T17:24:59.372Z,4.10
2023-04-29T17:27:25.995Z,3.28
2023-04-29T17:29:52.804Z,3.50
2023-04-29T17:32:28.016Z,3.60
2023-04-29T17:34:58.971Z,3.65
2023-04-29T17:37:25.835Z,4.50
2023-04-29T17:39:55.179Z,3.05
2023-04-29T17:42:22.055Z,3.45
2023-04-29T17:44:48.923Z,3.72
2023-04-29T17:47:19.213Z,3.70
2023-04-29T17:49:45.794Z,3.47
2023-04-29T17:52:12.698Z,3.63
2023-04-29T17:54:40.533Z,2.88
2023-04-29T17:57:07.827Z,3.17
2023-04-29T17:59:34.423Z,3.42
2023-04-29T18:02:01.075Z,3.67
2023-04-29T18:04:27.660Z,4.22
2023-04-29T18:06:54.225Z,3.53
2023-04-29T18:09:20.715Z,3.63
2023-04-29T18:11:47.347Z,2.90
2023-04-29T18:14:13.792Z,3.55
2023-04-29T18:16:40.344Z,3.30
2023-04-29T18:19:06.852Z,3.40
2023-04-29T18:21:33.458Z,3.58
2023-04-29T18:23:59.915Z,2.92
2023-04-29T18:26:26.578Z,3.63
2023-04-29T18:28:53.034Z,3.67
2023-04-29T18:31:20.262Z,3.40
2023-04-29T18:33:46.756Z,3.53
2023-04-29T18:36:14.206Z,2.80
2023-04-29T18:38:41.027Z,3.08
2023-04-29T18:41:08.566Z,3.50
2023-04-29T18:43:35.243Z,3.58
2023-04-29T18:46:01.728Z,3.33
2023-04-29T18:48:28.240Z,3.33
2023-04-29T18:50:59.068Z,3.80
2023-04-29T18:53:26.132Z,3.67
2023-04-29T18:55:52.568Z,3.80
2023-04-29T18:58:19.121Z,3.72
2023-04-29T19:00:45.738Z,4.32
2023-04-29T19:03:12.570Z,4.05
2023-04-29T19:05:39.041Z,3.65
2023-04-29T19:08:05.868Z,3.67
2023-04-29T19:10:32.311Z,4.35
2023-04-29T19:12:58.751Z,4.00
2023-04-29T19:15:27.931Z,3.60
2023-04-29T19:17:55.059Z,3.30
2023-04-29T19:20:21.560Z,4.35
2023-04-29T19:22:48.602Z,4.00
2023-04-29T19:25:15.534Z,4.10
2023-04-29T19:27:45.067Z,4.05
2023-04-29T19:30:12.385Z,4.53
2023-04-29T19:32:39.038Z,3.80
2023-04-29T19:35:05.897Z,3.47
2023-04-29T19:37:32.416Z,3.75
2023-04-29T19:39:58.866Z,4.18
2023-04-29T19:42:25.537Z,3.55
2023-04-29T19:44:51.951Z,4.40
2023-04-29T19:47:18.400Z,4.82
2023-04-29T19:49:44.814Z,5.07
2023-04-29T19:52:11.327Z,4.80
2023-04-29T19:54:38.145Z,4.80
2023-04-29T19:57:04.880Z,4.35
2023-04-29T19:59:31.302Z,4.88
2023-04-29T20:01:57.929Z,4.30
2023-04-29T20:04:25.412Z,4.40
2023-04-29T20:06:51.805Z,5.38
2023-04-29T20:09:18.235Z,5.32
2023-04-29T20:11:44.993Z,4.65
2023-04-29T20:14:11.632Z,4.50
2023-04-29T20:16:38.106Z,4.53
2023-04-29T20:19:04.516Z,4.40
2023-04-29T20:21:32.455Z,5.82
2023-04-29T20:23:58.928Z,4.90
2023-04-29T20:26:27.164Z,4.82
2023-04-29T20:28:53.613Z,5.18
2023-04-29T20:31:20.183Z,5.38
2023-04-29T20:33:46.943Z,5.07
2023-04-29T20:36:13.370Z,5.40
2023-04-29T20:38:39.842Z,5.47
2023-04-29T20:41:06.312Z,6.35
2023-04-29T20:43:32.777Z,5.95
2023-04-29T20:46:00.496Z,5.35
2023-04-29T20:48:28.315Z,5.20
2023-04-29T20:50:54.814Z,5.47
2023-04-29T20:53:22.078Z,5.40
2023-04-29T20:55:48.603Z,5.60
2023-04-29T20:58:16.280Z,6.50
2023-04-29T21:00:42.931Z,5.80
2023-04-29T21:03:10.355Z,5.30
2023-04-29T21:05:36.779Z,5.30
2023-04-29T21:08:03.296Z,4.93
2023-04-29T21:10:29.731Z,5.03
2023-04-29T21:12:56.298Z,5.05
2023-04-29T21:15:22.849Z,5.60
2023-04-29T21:17:49.354Z,5.43
2023-04-29T21:20:17.163Z,6.55
2023-04-29T21:22:44.989Z,5.70
2023-04-29T21:25:11.531Z,5.20
2023-04-29T21:27:37.997Z,5.22
2023-04-29T21:30:04.957Z,5.30
2023-04-29T21:32:33.544Z,6.03
2023-04-29T21:35:00.177Z,5.70
2023-04-29T21:37:26.623Z,5.68
2023-04-29T21:39:53.402Z,6.13
2023-04-29T21:42:23.191Z,6.30
2023-04-29T21:44:49.701Z,6.70
2023-04-29T21:47:16.420Z,5.88
2023-04-29T21:49:42.862Z,5.13
2023-04-29T21:52:09.382Z,4.38
2023-04-29T21:54:35.804Z,4.88
2023-04-29T21:57:02.954Z,4.78
2023-04-29T21:59:34.198Z,4.43
2023-04-29T22:02:01.281Z,4.78
2023-04-29T22:04:28.220Z,4.82
2023-04-29T22:06:56.024Z,5.32
2023-04-29T22:09:22.603Z,5.25
2023-04-29T22:11:49.074Z,5.60
2023-04-29T22:14:15.796Z,5.18
2023-04-29T22:16:42.499Z,5.43
2023-04-29T22:19:09.181Z,4.95
2023-04-29T22:21:35.793Z,4.97
2023-04-29T22:24:02.276Z,5.15
2023-04-29T22:26:28.811Z,5.00
2023-04-29T22:28:56.815Z,4.90
2023-04-29T22:31:23.393Z,5.03
2023-04-29T22:33:49.981Z,4.50
2023-04-29T22:36:16.450Z,4.75
2023-04-29T22:38:42.890Z,4.93
2023-04-29T22:41:11.628Z,4.20
2023-04-29T22:43:38.343Z,4.15
2023-04-29T22:46:05.023Z,4.30
2023-04-29T22:48:31.563Z,4.63
2023-04-29T22:50:59.418Z,3.65
2023-04-29T22:53:26.127Z,3.58
2023-04-29T22:55:58.227Z,3.28
2023-04-29T22:58:26.230Z,3.40
2023-04-29T23:00:57.521Z,2.80
2023-04-29T23:03:24.532Z,3.10
2023-04-29T23:05:51.176Z,2.83
2023-04-29T23:08:17.646Z,2.65
2023-04-29T23:10:51.162Z,2.90
2023-04-29T23:13:18.016Z,2.13
2023-04-29T23:15:45.380Z,2.45
2023-04-29T23:18:12.071Z,2.30
2023-04-29T23:20:38.628Z,2.30
2023-04-29T23:23:05.283Z,2.55
2023-04-29T23:25:31.846Z,1.88
2023-04-29T23:27:58.380Z,1.65
2023-04-29T23:30:24.885Z,2.63
2023-04-29T23:32:51.397Z,2.03
2023-04-29T23:35:17.904Z,2.05
2023-04-29T23:37:44.430Z,2.30
2023-04-29T23:40:11.092Z,1.90
2023-04-29T23:42:37.597Z,2.30
2023-04-29T23:45:04.602Z,2.00
2023-04-29T23:47:31.076Z,2.20
2023-04-29T23:49:57.529Z,1.65
2023-04-29T23:52:24.608Z,2.00
2023-04-29T23:54:51.064Z,2.15
2023-04-29T23:57:17.904Z,1.90
2023-04-29T23:59:45.495Z,2.50
